sensor_id;sensor_type;location;lat;lon;timestamp;pressure;altitude;pressure_sealevel;temperature;humidity
3812;BME280;1921;49.368;11.068;2022-08-01T00:01:56;97526.47;;;21.18;61.38
3812;BME280;1921;49.368;11.068;2022-08-01T00:04:22;97504.38;;;20.90;63.27
3812;BME280;1921;49.368;11.068;2022-08-01T00:06:48;97525.44;;;20.80;65.04
3812;BME280;1921;49.368;11.068;2022-08-01T00:09:13;97496.50;;;20.57;64.46
3812;BME280;1921;49.368;11.068;2022-08-01T00:11:39;97508.81;;;20.68;63.97
3812;BME280;1921;49.368;11.068;2022-08-01T00:14:05;97492.91;;;20.46;65.96
3812;BME280;1921;49.368;11.068;2022-08-01T00:16:30;97426.72;;;19.96;65.83
3812;BME280;1921;49.368;11.068;2022-08-01T00:18:56;97497.41;;;20.46;65.26
3812;BME280;1921;49.368;11.068;2022-08-01T00:21:22;97524.72;;;20.68;65.19
3812;BME280;1921;49.368;11.068;2022-08-01T00:23:48;97497.69;;;20.49;64.59
3812;BME280;1921;49.368;11.068;2022-08-01T00:26:13;97486.94;;;20.39;66.49
3812;BME280;1921;49.368;11.068;2022-08-01T00:28:40;97560.88;;;20.74;67.35
3812;BME280;1921;49.368;11.068;2022-08-01T00:31:07;97520.09;;;20.41;67.74
3812;BME280;1921;49.368;11.068;2022-08-01T00:33:33;97536.56;;;20.43;68.08
3812;BME280;1921;49.368;11.068;2022-08-01T00:35:59;97460.16;;;19.85;68.06
3812;BME280;1921;49.368;11.068;2022-08-01T00:38:24;97529.06;;;20.24;67.47
3812;BME280;1921;49.368;11.068;2022-08-01T00:40:50;97463.75;;;19.79;67.96
3812;BME280;1921;49.368;11.068;2022-08-01T00:43:16;97477.00;;;19.79;68.53
3812;BME280;1921;49.368;11.068;2022-08-01T00:45:42;97483.34;;;19.78;68.34
3812;BME280;1921;49.368;11.068;2022-08-01T00:48:08;97508.44;;;19.92;68.68
3812;BME280;1921;49.368;11.068;2022-08-01T00:50:34;97560.47;;;20.15;69.57
3812;BME280;1921;49.368;11.068;2022-08-01T00:53:00;97564.97;;;20.14;69.76
3812;BME280;1921;49.368;11.068;2022-08-01T00:55:28;97537.41;;;19.99;69.58
3812;BME280;1921;49.368;11.068;2022-08-01T00:57:54;97534.75;;;19.82;68.92
3812;BME280;1921;49.368;11.068;2022-08-01T01:00:21;97524.16;;;19.82;68.78
3812;BME280;1921;49.368;11.068;2022-08-01T01:02:47;97513.59;;;19.82;68.99
3812;BME280;1921;49.368;11.068;2022-08-01T01:05:13;97528.97;;;19.85;68.58
3812;BME280;1921;49.368;11.068;2022-08-01T01:08:02;97561.56;;;20.02;69.38
3812;BME280;1921;49.368;11.068;2022-08-01T01:10:48;97559.63;;;19.98;69.82
3812;BME280;1921;49.368;11.068;2022-08-01T01:13:46;97558.38;;;20.00;69.36
3812;BME280;1921;49.368;11.068;2022-08-01T01:16:16;97566.22;;;19.95;69.42
3812;BME280;1921;49.368;11.068;2022-08-01T01:18:55;97573.56;;;19.93;70.15
3812;BME280;1921;49.368;11.068;2022-08-01T01:29:41;97576.00;;;19.66;71.02
3812;BME280;1921;49.368;11.068;2022-08-01T01:34:46;97574.72;;;19.28;72.02
3812;BME280;1921;49.368;11.068;2022-08-01T01:37:19;97548.06;;;19.06;71.77
3812;BME280;1921;49.368;11.068;2022-08-01T01:39:49;97536.47;;;19.07;71.38
3812;BME280;1921;49.368;11.068;2022-08-01T01:42:17;97578.81;;;19.36;70.89
3812;BME280;1921;49.368;11.068;2022-08-01T01:44:45;97540.34;;;19.17;71.07
3812;BME280;1921;49.368;11.068;2022-08-01T01:47:13;97520.75;;;19.01;71.18
3812;BME280;1921;49.368;11.068;2022-08-01T01:49:40;97549.88;;;19.18;71.07
3812;BME280;1921;49.368;11.068;2022-08-01T01:52:08;97555.97;;;19.18;71.23
3812;BME280;1921;49.368;11.068;2022-08-01T01:54:42;97571.38;;;19.33;70.58
3812;BME280;1921;49.368;11.068;2022-08-01T01:57:10;97454.38;;;18.50;70.69
3812;BME280;1921;49.368;11.068;2022-08-01T01:59:38;97615.03;;;19.47;71.02
3812;BME280;1921;49.368;11.068;2022-08-01T02:02:06;97594.66;;;19.48;70.61
3812;BME280;1921;49.368;11.068;2022-08-01T02:04:36;97578.81;;;19.36;70.51
3812;BME280;1921;49.368;11.068;2022-08-01T02:07:04;97601.81;;;19.47;70.80
3812;BME280;1921;49.368;11.068;2022-08-01T02:09:32;97598.69;;;19.50;70.81
3812;BME280;1921;49.368;11.068;2022-08-01T02:11:59;97605.25;;;19.59;70.37
3812;BME280;1921;49.368;11.068;2022-08-01T02:14:28;97556.06;;;19.35;69.86
3812;BME280;1921;49.368;11.068;2022-08-01T02:16:57;97586.28;;;19.51;69.74
3812;BME280;1921;49.368;11.068;2022-08-01T02:19:23;97564.13;;;19.28;69.96
3812;BME280;1921;49.368;11.068;2022-08-01T02:22:00;97489.78;;;18.73;69.87
3812;BME280;1921;49.368;11.068;2022-08-01T02:24:52;97518.56;;;18.98;69.78
3812;BME280;1921;49.368;11.068;2022-08-01T02:27:25;97137.44;;;16.66;68.56
3812;BME280;1921;49.368;11.068;2022-08-01T02:30:02;97350.75;;;18.32;68.83
3812;BME280;1921;49.368;11.068;2022-08-01T02:32:43;97388.69;;;18.66;68.12
3812;BME280;1921;49.368;11.068;2022-08-01T02:35:14;97421.19;;;19.06;67.91
3812;BME280;1921;49.368;11.068;2022-08-01T02:37:43;97136.78;;;17.06;66.86
3812;BME280;1921;49.368;11.068;2022-08-01T02:40:12;97187.94;;;17.68;66.84
3812;BME280;1921;49.368;11.068;2022-08-01T02:42:50;97531.53;;;19.80;67.26
3812;BME280;1921;49.368;11.068;2022-08-01T02:45:20;97526.97;;;19.75;66.88
3812;BME280;1921;49.368;11.068;2022-08-01T02:47:48;97500.34;;;19.53;67.54
3812;BME280;1921;49.368;11.068;2022-08-01T02:50:16;97569.53;;;19.74;67.92
3812;BME280;1921;49.368;11.068;2022-08-01T02:52:48;97478.38;;;19.24;67.95
3812;BME280;1921;49.368;11.068;2022-08-01T02:55:17;97228.41;;;17.62;67.83
3812;BME280;1921;49.368;11.068;2022-08-01T02:57:46;97550.72;;;19.58;67.71
3812;BME280;1921;49.368;11.068;2022-08-01T03:00:15;97566.72;;;19.63;68.56
3812;BME280;1921;49.368;11.068;2022-08-01T03:02:42;97553.84;;;19.44;69.56
3812;BME280;1921;49.368;11.068;2022-08-01T03:05:11;97583.03;;;19.49;70.08
3812;BME280;1921;49.368;11.068;2022-08-01T03:07:39;97329.22;;;17.76;69.93
3812;BME280;1921;49.368;11.068;2022-08-01T03:10:06;97499.53;;;18.72;69.82
3812;BME280;1921;49.368;11.068;2022-08-01T03:12:34;97591.94;;;19.31;70.43
3812;BME280;1921;49.368;11.068;2022-08-01T03:15:03;97470.13;;;18.45;70.77
3812;BME280;1921;49.368;11.068;2022-08-01T03:17:30;97600.59;;;19.26;71.20
3812;BME280;1921;49.368;11.068;2022-08-01T03:19:58;97594.16;;;19.22;71.82
3812;BME280;1921;49.368;11.068;2022-08-01T03:22:30;97527.78;;;18.72;71.79
3812;BME280;1921;49.368;11.068;2022-08-01T03:24:57;97274.91;;;16.86;71.84
3812;BME280;1921;49.368;11.068;2022-08-01T03:27:25;97461.06;;;18.18;72.79
3812;BME280;1921;49.368;11.068;2022-08-01T03:29:52;97437.84;;;17.73;72.89
3812;BME280;1921;49.368;11.068;2022-08-01T03:32:21;97648.63;;;19.12;73.25
3812;BME280;1921;49.368;11.068;2022-08-01T03:34:48;97564.50;;;18.62;73.63
3812;BME280;1921;49.368;11.068;2022-08-01T03:37:27;97637.63;;;19.15;73.84
3812;BME280;1921;49.368;11.068;2022-08-01T03:40:17;97618.56;;;18.89;73.94
3812;BME280;1921;49.368;11.068;2022-08-01T03:42:48;97651.06;;;19.01;74.74
3812;BME280;1921;49.368;11.068;2022-08-01T03:45:33;97644.63;;;18.86;75.64
3812;BME280;1921;49.368;11.068;2022-08-01T03:48:05;97651.75;;;18.85;76.18
3812;BME280;1921;49.368;11.068;2022-08-01T03:50:36;97660.16;;;18.82;76.41
3812;BME280;1921;49.368;11.068;2022-08-01T03:53:03;97631.59;;;18.61;76.10
3812;BME280;1921;49.368;11.068;2022-08-01T03:55:32;97613.66;;;18.39;76.75
3812;BME280;1921;49.368;11.068;2022-08-01T03:57:59;97634.34;;;18.54;76.41
3812;BME280;1921;49.368;11.068;2022-08-01T04:00:27;97617.44;;;18.43;76.27
3812;BME280;1921;49.368;11.068;2022-08-01T04:02:53;97580.50;;;18.13;76.17
3812;BME280;1921;49.368;11.068;2022-08-01T04:05:19;97644.34;;;18.64;76.39
3812;BME280;1921;49.368;11.068;2022-08-01T04:07:50;97618.84;;;18.58;76.49
3812;BME280;1921;49.368;11.068;2022-08-01T04:10:25;97622.56;;;18.80;75.81
3812;BME280;1921;49.368;11.068;2022-08-01T04:12:51;97686.34;;;19.30;74.94
3812;BME280;1921;49.368;11.068;2022-08-01T04:15:17;97662.41;;;19.37;74.45
3812;BME280;1921;49.368;11.068;2022-08-01T04:17:43;97675.69;;;19.89;73.10
3812;BME280;1921;49.368;11.068;2022-08-01T04:20:10;97677.03;;;20.32;71.76
3812;BME280;1921;49.368;11.068;2022-08-01T04:22:36;97649.41;;;20.56;68.55
3812;BME280;1921;49.368;11.068;2022-08-01T04:25:07;97667.03;;;20.67;67.95
3812;BME280;1921;49.368;11.068;2022-08-01T04:27:38;97649.69;;;20.60;67.43
3812;BME280;1921;49.368;11.068;2022-08-01T04:30:07;97644.50;;;20.65;67.36
3812;BME280;1921;49.368;11.068;2022-08-01T04:32:37;97685.88;;;21.00;67.38
3812;BME280;1921;49.368;11.068;2022-08-01T04:35:07;97670.03;;;20.88;67.29
3812;BME280;1921;49.368;11.068;2022-08-01T04:37:35;97650.00;;;20.80;67.92
3812;BME280;1921;49.368;11.068;2022-08-01T04:40:04;97682.25;;;21.06;67.97
3812;BME280;1921;49.368;11.068;2022-08-01T04:42:32;97607.63;;;20.63;67.89
3812;BME280;1921;49.368;11.068;2022-08-01T04:44:58;97635.78;;;20.86;67.99
3812;BME280;1921;49.368;11.068;2022-08-01T04:47:26;97685.53;;;21.13;68.35
3812;BME280;1921;49.368;11.068;2022-08-01T04:49:52;97653.53;;;21.03;68.07
3812;BME280;1921;49.368;11.068;2022-08-01T04:52:19;97624.56;;;20.96;67.85
3812;BME280;1921;49.368;11.068;2022-08-01T04:54:45;97656.19;;;21.19;67.67
3812;BME280;1921;49.368;11.068;2022-08-01T04:57:12;97676.72;;;21.46;67.69
3812;BME280;1921;49.368;11.068;2022-08-01T04:59:42;97690.50;;;21.65;67.58
3812;BME280;1921;49.368;11.068;2022-08-01T05:02:18;97707.84;;;21.72;67.71
3812;BME280;1921;49.368;11.068;2022-08-01T05:04:45;97665.28;;;21.62;67.33
3812;BME280;1921;49.368;11.068;2022-08-01T05:07:12;97669.41;;;21.75;66.98
3812;BME280;1921;49.368;11.068;2022-08-01T05:09:39;97664.00;;;21.92;66.47
3812;BME280;1921;49.368;11.068;2022-08-01T05:12:09;97676.19;;;22.10;66.15
3812;BME280;1921;49.368;11.068;2022-08-01T05:14:36;97688.06;;;22.24;65.31
3812;BME280;1921;49.368;11.068;2022-08-01T05:17:04;97668.81;;;22.17;65.22
3812;BME280;1921;49.368;11.068;2022-08-01T05:19:36;97705.59;;;22.52;65.21
3812;BME280;1921;49.368;11.068;2022-08-01T05:22:06;97680.22;;;22.39;65.19
3812;BME280;1921;49.368;11.068;2022-08-01T05:24:34;97658.22;;;22.44;64.42
3812;BME280;1921;49.368;11.068;2022-08-01T05:27:00;97687.56;;;22.59;64.72
3812;BME280;1921;49.368;11.068;2022-08-01T05:29:27;97659.38;;;22.58;64.53
3812;BME280;1921;49.368;11.068;2022-08-01T05:31:53;97689.72;;;22.89;63.93
3812;BME280;1921;49.368;11.068;2022-08-01T05:34:20;97658.06;;;22.88;63.43
3812;BME280;1921;49.368;11.068;2022-08-01T05:36:46;97674.91;;;23.03;63.23
3812;BME280;1921;49.368;11.068;2022-08-01T05:39:12;97731.91;;;23.50;63.66
3812;BME280;1921;49.368;11.068;2022-08-01T05:41:39;97652.19;;;23.28;62.18
3812;BME280;1921;49.368;11.068;2022-08-01T05:44:05;97715.34;;;23.85;61.46
3812;BME280;1921;49.368;11.068;2022-08-01T05:46:31;97667.31;;;23.64;60.88
3812;BME280;1921;49.368;11.068;2022-08-01T05:48:58;97706.09;;;24.03;60.77
3812;BME280;1921;49.368;11.068;2022-08-01T05:51:25;97689.56;;;24.01;59.99
3812;BME280;1921;49.368;11.068;2022-08-01T05:53:51;97710.38;;;24.14;60.11
3812;BME280;1921;49.368;11.068;2022-08-01T05:56:17;97681.00;;;23.88;60.64
3812;BME280;1921;49.368;11.068;2022-08-01T05:58:43;97690.91;;;23.98;60.45
3812;BME280;1921;49.368;11.068;2022-08-01T06:01:09;97687.72;;;24.06;61.00
3812;BME280;1921;49.368;11.068;2022-08-01T06:03:35;97680.50;;;23.92;61.02
3812;BME280;1921;49.368;11.068;2022-08-01T06:06:02;97710.91;;;24.06;61.65
3812;BME280;1921;49.368;11.068;2022-08-01T06:08:27;97673.97;;;24.50;59.33
3812;BME280;1921;49.368;11.068;2022-08-01T06:10:53;97676.94;;;24.74;58.49
3812;BME280;1921;49.368;11.068;2022-08-01T06:13:19;97655.84;;;25.08;57.10
3812;BME280;1921;49.368;11.068;2022-08-01T06:15:46;97702.97;;;25.59;56.12
3812;BME280;1921;49.368;11.068;2022-08-01T06:18:13;97671.00;;;25.33;56.01
3812;BME280;1921;49.368;11.068;2022-08-01T06:20:39;97709.09;;;25.69;55.26
3812;BME280;1921;49.368;11.068;2022-08-01T06:23:05;97692.63;;;25.42;56.30
3812;BME280;1921;49.368;11.068;2022-08-01T06:25:31;97671.84;;;25.18;56.91
3812;BME280;1921;49.368;11.068;2022-08-01T06:27:56;97692.34;;;25.54;55.99
3812;BME280;1921;49.368;11.068;2022-08-01T06:30:22;97689.59;;;25.79;54.61
3812;BME280;1921;49.368;11.068;2022-08-01T06:32:48;97700.28;;;25.84;55.03
3812;BME280;1921;49.368;11.068;2022-08-01T06:35:15;97699.69;;;25.97;54.19
3812;BME280;1921;49.368;11.068;2022-08-01T06:37:41;97725.47;;;26.27;53.56
3812;BME280;1921;49.368;11.068;2022-08-01T06:40:09;97688.59;;;25.49;56.08
3812;BME280;1921;49.368;11.068;2022-08-01T06:42:36;97721.97;;;26.27;53.78
3812;BME280;1921;49.368;11.068;2022-08-01T06:45:07;97726.81;;;26.69;52.11
3812;BME280;1921;49.368;11.068;2022-08-01T06:47:34;97732.25;;;26.98;51.50
3812;BME280;1921;49.368;11.068;2022-08-01T06:49:59;97692.41;;;26.57;52.95
3812;BME280;1921;49.368;11.068;2022-08-01T06:52:26;97727.34;;;27.40;50.26
3812;BME280;1921;49.368;11.068;2022-08-01T06:54:51;97722.47;;;27.47;49.92
3812;BME280;1921;49.368;11.068;2022-08-01T06:57:17;97756.41;;;26.39;54.13
3812;BME280;1921;49.368;11.068;2022-08-01T06:59:43;97728.16;;;26.72;52.28
3812;BME280;1921;49.368;11.068;2022-08-01T07:02:09;97734.53;;;26.76;52.24
3812;BME280;1921;49.368;11.068;2022-08-01T07:04:37;97705.69;;;26.28;53.76
3812;BME280;1921;49.368;11.068;2022-08-01T07:07:04;97555.75;;;25.01;53.67
3812;BME280;1921;49.368;11.068;2022-08-01T07:09:30;97594.84;;;25.46;53.28
3812;BME280;1921;49.368;11.068;2022-08-01T07:11:56;97631.00;;;25.93;53.17
3812;BME280;1921;49.368;11.068;2022-08-01T07:14:22;97680.47;;;26.40;52.15
3812;BME280;1921;49.368;11.068;2022-08-01T07:16:49;97505.59;;;25.57;51.60
3812;BME280;1921;49.368;11.068;2022-08-01T07:19:15;97511.38;;;25.25;51.72
3812;BME280;1921;49.368;11.068;2022-08-01T07:21:41;97607.38;;;26.15;50.79
3812;BME280;1921;49.368;11.068;2022-08-01T07:24:12;97455.03;;;25.27;50.99
3812;BME280;1921;49.368;11.068;2022-08-01T07:26:42;97470.56;;;25.64;50.54
3812;BME280;1921;49.368;11.068;2022-08-01T07:29:08;97506.09;;;25.64;51.25
3812;BME280;1921;49.368;11.068;2022-08-01T07:31:34;97548.75;;;25.85;50.83
3812;BME280;1921;49.368;11.068;2022-08-01T07:34:00;97644.19;;;26.63;50.90
3812;BME280;1921;49.368;11.068;2022-08-01T07:36:26;97718.19;;;27.46;48.72
3812;BME280;1921;49.368;11.068;2022-08-01T07:38:51;97701.56;;;27.44;49.38
3812;BME280;1921;49.368;11.068;2022-08-01T07:41:17;97719.22;;;27.98;47.43
3812;BME280;1921;49.368;11.068;2022-08-01T07:43:43;97721.50;;;27.32;49.85
3812;BME280;1921;49.368;11.068;2022-08-01T07:46:09;97720.53;;;27.52;47.62
3812;BME280;1921;49.368;11.068;2022-08-01T07:48:36;97634.56;;;26.96;48.72
3812;BME280;1921;49.368;11.068;2022-08-01T07:51:06;97624.19;;;27.42;46.71
3812;BME280;1921;49.368;11.068;2022-08-01T07:53:32;97669.75;;;27.13;48.37
3812;BME280;1921;49.368;11.068;2022-08-01T07:55:58;97660.25;;;27.50;47.46
3812;BME280;1921;49.368;11.068;2022-08-01T07:58:25;97565.84;;;26.86;46.87
3812;BME280;1921;49.368;11.068;2022-08-01T08:00:51;97409.88;;;25.74;47.01
3812;BME280;1921;49.368;11.068;2022-08-01T08:03:16;97640.34;;;27.32;47.49
3812;BME280;1921;49.368;11.068;2022-08-01T08:05:42;97580.47;;;26.70;47.23
3812;BME280;1921;49.368;11.068;2022-08-01T08:08:09;97729.25;;;28.11;46.26
3812;BME280;1921;49.368;11.068;2022-08-01T08:10:36;97623.56;;;27.93;45.01
3812;BME280;1921;49.368;11.068;2022-08-01T08:13:02;97642.75;;;27.81;45.30
3812;BME280;1921;49.368;11.068;2022-08-01T08:15:28;97741.97;;;28.00;46.01
3812;BME280;1921;49.368;11.068;2022-08-01T08:17:54;97721.69;;;28.13;45.42
3812;BME280;1921;49.368;11.068;2022-08-01T08:20:21;97713.94;;;28.11;45.61
3812;BME280;1921;49.368;11.068;2022-08-01T08:22:51;97624.88;;;27.53;45.76
3812;BME280;1921;49.368;11.068;2022-08-01T08:25:17;97620.44;;;27.62;46.31
3812;BME280;1921;49.368;11.068;2022-08-01T08:27:45;97639.03;;;28.01;45.24
3812;BME280;1921;49.368;11.068;2022-08-01T08:30:12;97545.34;;;27.48;44.98
3812;BME280;1921;49.368;11.068;2022-08-01T08:32:38;97475.16;;;27.08;45.01
3812;BME280;1921;49.368;11.068;2022-08-01T08:35:05;97553.06;;;27.93;43.46
3812;BME280;1921;49.368;11.068;2022-08-01T08:37:32;97463.59;;;27.51;43.19
3812;BME280;1921;49.368;11.068;2022-08-01T08:39:58;97531.47;;;28.03;42.85
3812;BME280;1921;49.368;11.068;2022-08-01T08:42:23;97540.38;;;27.98;42.55
3812;BME280;1921;49.368;11.068;2022-08-01T08:44:49;97498.94;;;27.53;43.92
3812;BME280;1921;49.368;11.068;2022-08-01T08:47:15;97489.13;;;27.00;45.86
3812;BME280;1921;49.368;11.068;2022-08-01T08:49:43;97640.38;;;28.88;43.64
3812;BME280;1921;49.368;11.068;2022-08-01T08:52:10;97658.69;;;29.46;41.94
3812;BME280;1921;49.368;11.068;2022-08-01T08:54:38;97518.97;;;28.12;41.59
3812;BME280;1921;49.368;11.068;2022-08-01T08:57:06;97554.94;;;28.11;42.31
3812;BME280;1921;49.368;11.068;2022-08-01T08:59:32;97577.06;;;28.54;41.55
3812;BME280;1921;49.368;11.068;2022-08-01T09:01:59;97576.50;;;28.38;42.31
3812;BME280;1921;49.368;11.068;2022-08-01T09:04:26;97650.09;;;29.30;41.43
3812;BME280;1921;49.368;11.068;2022-08-01T09:06:52;97675.81;;;29.91;39.97
3812;BME280;1921;49.368;11.068;2022-08-01T09:09:18;97549.91;;;28.42;41.30
3812;BME280;1921;49.368;11.068;2022-08-01T09:11:44;97580.69;;;26.44;46.72
3812;BME280;1921;49.368;11.068;2022-08-01T09:14:17;97597.81;;;27.01;46.00
3812;BME280;1921;49.368;11.068;2022-08-01T09:17:04;97565.63;;;27.12;43.24
3812;BME280;1921;49.368;11.068;2022-08-01T09:19:42;97614.16;;;27.53;44.93
3812;BME280;1921;49.368;11.068;2022-08-01T09:22:12;97632.13;;;27.52;44.95
3812;BME280;1921;49.368;11.068;2022-08-01T09:24:40;97578.81;;;26.45;46.98
3812;BME280;1921;49.368;11.068;2022-08-01T09:27:21;97594.72;;;26.89;45.50
3812;BME280;1921;49.368;11.068;2022-08-01T09:29:54;97690.34;;;27.71;44.75
3812;BME280;1921;49.368;11.068;2022-08-01T09:32:23;97701.47;;;27.83;45.14
3812;BME280;1921;49.368;11.068;2022-08-01T09:34:49;97694.25;;;28.02;44.90
3812;BME280;1921;49.368;11.068;2022-08-01T09:37:14;97581.63;;;27.41;44.30
3812;BME280;1921;49.368;11.068;2022-08-01T09:39:43;97598.22;;;28.04;42.21
3812;BME280;1921;49.368;11.068;2022-08-01T09:42:25;97598.78;;;27.82;42.04
3812;BME280;1921;49.368;11.068;2022-08-01T09:44:52;97666.34;;;28.22;42.82
3812;BME280;1921;49.368;11.068;2022-08-01T09:47:20;97631.84;;;28.34;41.76
3812;BME280;1921;49.368;11.068;2022-08-01T09:49:55;97515.91;;;27.24;42.53
3812;BME280;1921;49.368;11.068;2022-08-01T09:52:24;97688.00;;;29.01;42.04
3812;BME280;1921;49.368;11.068;2022-08-01T09:54:58;97631.06;;;28.34;42.12
3812;BME280;1921;49.368;11.068;2022-08-01T09:57:26;97418.28;;;27.17;41.62
3812;BME280;1921;49.368;11.068;2022-08-01T09:59:55;97566.75;;;27.91;42.12
3812;BME280;1921;49.368;11.068;2022-08-01T10:02:34;97589.63;;;29.60;38.71
3812;BME280;1921;49.368;11.068;2022-08-01T10:05:03;97657.41;;;31.02;37.55
3812;BME280;1921;49.368;11.068;2022-08-01T10:07:29;97486.22;;;30.02;36.52
3812;BME280;1921;49.368;11.068;2022-08-01T10:09:55;97556.34;;;31.13;34.72
3812;BME280;1921;49.368;11.068;2022-08-01T10:12:23;97624.84;;;31.60;34.67
3812;BME280;1921;49.368;11.068;2022-08-01T10:14:52;97497.94;;;31.48;34.20
3812;BME280;1921;49.368;11.068;2022-08-01T10:17:21;97630.97;;;32.53;32.48
3812;BME280;1921;49.368;11.068;2022-08-01T10:19:50;97567.63;;;33.06;31.91
3812;BME280;1921;49.368;11.068;2022-08-01T10:22:23;97701.22;;;32.87;33.85
3812;BME280;1921;49.368;11.068;2022-08-01T10:24:53;97569.72;;;32.91;31.97
3812;BME280;1921;49.368;11.068;2022-08-01T10:27:20;97435.44;;;31.89;32.68
3812;BME280;1921;49.368;11.068;2022-08-01T10:29:55;97728.44;;;33.38;32.92
3812;BME280;1921;49.368;11.068;2022-08-01T10:32:21;97571.63;;;33.29;30.58
3812;BME280;1921;49.368;11.068;2022-08-01T10:34:47;97626.41;;;33.85;30.66
3812;BME280;1921;49.368;11.068;2022-08-01T10:37:14;97497.41;;;32.50;30.40
3812;BME280;1921;49.368;11.068;2022-08-01T10:39:40;97598.13;;;33.74;30.13
3812;BME280;1921;49.368;11.068;2022-08-01T10:42:11;97545.38;;;33.59;29.64
3812;BME280;1921;49.368;11.068;2022-08-01T10:44:38;97689.50;;;35.48;29.08
3812;BME280;1921;49.368;11.068;2022-08-01T10:47:12;97456.88;;;34.01;28.42
3812;BME280;1921;49.368;11.068;2022-08-01T10:49:51;97504.00;;;33.38;29.30
3812;BME280;1921;49.368;11.068;2022-08-01T10:52:20;97604.16;;;33.12;30.62
3812;BME280;1921;49.368;11.068;2022-08-01T10:54:46;97729.53;;;33.92;30.99
3812;BME280;1921;49.368;11.068;2022-08-01T10:57:13;97496.84;;;33.12;29.44
3812;BME280;1921;49.368;11.068;2022-08-01T10:59:51;97442.44;;;33.14;28.81
3812;BME280;1921;49.368;11.068;2022-08-01T11:02:31;97421.91;;;32.62;29.16
3812;BME280;1921;49.368;11.068;2022-08-01T11:05:04;97710.06;;;34.49;29.78
3812;BME280;1921;49.368;11.068;2022-08-01T11:08:20;97450.75;;;31.11;32.43
3812;BME280;1921;49.368;11.068;2022-08-01T11:10:47;97501.34;;;31.23;33.56
3812;BME280;1921;49.368;11.068;2022-08-01T11:13:13;97500.66;;;31.74;31.30
3812;BME280;1921;49.368;11.068;2022-08-01T11:15:40;97471.31;;;31.64;31.45
3812;BME280;1921;49.368;11.068;2022-08-01T11:18:30;97589.38;;;32.28;31.49
3812;BME280;1921;49.368;11.068;2022-08-01T11:21:02;97533.69;;;31.88;32.18
3812;BME280;1921;49.368;11.068;2022-08-01T11:23:29;97450.66;;;31.42;31.75
3812;BME280;1921;49.368;11.068;2022-08-01T11:28:26;97513.31;;;31.48;31.96
3812;BME280;1921;49.368;11.068;2022-08-01T11:33:48;97503.69;;;31.90;31.63
3812;BME280;1921;49.368;11.068;2022-08-01T11:38:45;97581.75;;;32.21;31.87
3812;BME280;1921;49.368;11.068;2022-08-01T11:41:24;97701.66;;;32.72;32.66
3812;BME280;1921;49.368;11.068;2022-08-01T11:44:04;97416.13;;;31.44;31.69
3812;BME280;1921;49.368;11.068;2022-08-01T11:47:04;97697.47;;;33.65;31.03
3812;BME280;1921;49.368;11.068;2022-08-01T11:49:47;97701.03;;;32.66;32.23
3812;BME280;1921;49.368;11.068;2022-08-01T11:52:30;97492.53;;;31.31;32.38
3812;BME280;1921;49.368;11.068;2022-08-01T11:57:29;97541.38;;;31.47;32.85
3812;BME280;1921;49.368;11.068;2022-08-01T12:02:35;97371.38;;;28.86;34.84
3812;BME280;1921;49.368;11.068;2022-08-01T12:07:30;97444.78;;;29.45;34.97
3812;BME280;1921;49.368;11.068;2022-08-01T12:10:09;97415.00;;;29.55;34.95
3812;BME280;1921;49.368;11.068;2022-08-01T12:12:37;97507.22;;;30.14;34.29
3812;BME280;1921;49.368;11.068;2022-08-01T12:15:09;97472.34;;;29.01;36.27
3812;BME280;1921;49.368;11.068;2022-08-01T12:17:43;97277.50;;;26.35;39.22
3812;BME280;1921;49.368;11.068;2022-08-01T12:20:14;97320.56;;;27.33;38.23
3812;BME280;1921;49.368;11.068;2022-08-01T12:22:40;97366.63;;;28.28;36.63
3812;BME280;1921;49.368;11.068;2022-08-01T12:25:15;97597.78;;;30.95;34.27
3812;BME280;1921;49.368;11.068;2022-08-01T12:27:45;97546.81;;;29.64;36.17
3812;BME280;1921;49.368;11.068;2022-08-01T12:30:20;97524.41;;;30.58;34.21
3812;BME280;1921;49.368;11.068;2022-08-01T12:32:50;97553.06;;;30.32;35.19
3812;BME280;1921;49.368;11.068;2022-08-01T12:35:19;97592.69;;;29.67;36.39
3812;BME280;1921;49.368;11.068;2022-08-01T12:37:56;97383.13;;;28.21;36.42
3812;BME280;1921;49.368;11.068;2022-08-01T12:40:25;97534.09;;;27.03;40.76
3812;BME280;1921;49.368;11.068;2022-08-01T12:43:00;97517.50;;;27.25;41.06
3812;BME280;1921;49.368;11.068;2022-08-01T12:45:39;97412.28;;;27.25;39.54
3812;BME280;1921;49.368;11.068;2022-08-01T12:48:13;97474.09;;;27.85;39.24
3812;BME280;1921;49.368;11.068;2022-08-01T12:50:43;97465.09;;;28.27;37.65
3812;BME280;1921;49.368;11.068;2022-08-01T12:53:10;97428.97;;;28.52;37.14
3812;BME280;1921;49.368;11.068;2022-08-01T12:55:48;97299.38;;;27.97;37.05
3812;BME280;1921;49.368;11.068;2022-08-01T12:58:16;97263.56;;;26.76;38.41
3812;BME280;1921;49.368;11.068;2022-08-01T13:00:45;97495.53;;;28.50;38.04
3812;BME280;1921;49.368;11.068;2022-08-01T13:03:18;97419.50;;;29.46;36.00
3812;BME280;1921;49.368;11.068;2022-08-01T13:05:49;97413.94;;;30.80;34.01
3812;BME280;1921;49.368;11.068;2022-08-01T13:08:25;97450.56;;;32.29;31.43
3812;BME280;1921;49.368;11.068;2022-08-01T13:11:07;97416.53;;;32.07;31.08
3812;BME280;1921;49.368;11.068;2022-08-01T13:13:51;97401.78;;;32.51;30.18
3812;BME280;1921;49.368;11.068;2022-08-01T13:16:23;97478.53;;;29.37;35.79
3812;BME280;1921;49.368;11.068;2022-08-01T13:18:54;97319.03;;;26.70;39.62
3812;BME280;1921;49.368;11.068;2022-08-01T13:21:27;97499.56;;;28.94;37.80
3812;BME280;1921;49.368;11.068;2022-08-01T13:24:09;97662.78;;;31.02;35.75
3812;BME280;1921;49.368;11.068;2022-08-01T13:26:50;97460.38;;;29.70;35.12
3812;BME280;1921;49.368;11.068;2022-08-01T13:29:20;97378.25;;;29.64;35.14
3812;BME280;1921;49.368;11.068;2022-08-01T13:31:48;97403.78;;;29.53;35.33
3812;BME280;1921;49.368;11.068;2022-08-01T13:34:15;97464.38;;;30.26;34.59
3812;BME280;1921;49.368;11.068;2022-08-01T13:36:41;97500.38;;;31.10;34.29
3812;BME280;1921;49.368;11.068;2022-08-01T13:39:07;97293.22;;;30.74;32.33
3812;BME280;1921;49.368;11.068;2022-08-01T13:41:52;97438.16;;;31.63;31.30
3812;BME280;1921;49.368;11.068;2022-08-01T13:44:18;97460.97;;;31.31;32.28
3812;BME280;1921;49.368;11.068;2022-08-01T13:46:45;97416.34;;;30.99;32.44
3812;BME280;1921;49.368;11.068;2022-08-01T13:49:13;97570.50;;;32.19;32.13